Time;durP1;ratioP1;P1;durP2;ratioP2;P2;SDS_P1;SDS_P2;PMS_P1;PMS_P2;Temp;Humidity;BMP_temperature;BMP_pressure;BME280_temperature;BME280_humidity;BME280_pressure;Samples;Min_cycle;Max_cycle;Signal;HPM_P1;HPM_P2
2021/01/09 00:01:41;;;;;;;1.98;1.05;;;-0.30;99.90;;;;;;4151995;28;20058;-91
2021/01/09 00:03:43;;;;;;;1.67;1.35;;;-0.30;99.90;;;;;;4149973;28;20494;-91
2021/01/09 00:05:45;;;;;;;1.35;1.25;;;-0.30;99.90;;;;;;4167885;28;20058;-91
2021/01/09 00:07:46;;;;;;;2.33;1.48;;;-0.30;99.90;;;;;;4149367;28;20136;-90
2021/01/09 00:09:48;;;;;;;1.25;1.15;;;-0.40;99.90;;;;;;4164753;28;20451;-91
2021/01/09 00:11:50;;;;;;;1.85;1.75;;;-0.30;99.90;;;;;;4149206;28;20062;-91
2021/01/09 00:13:52;;;;;;;1.13;0.93;;;-0.30;99.90;;;;;;4165059;28;20049;-92
2021/01/09 00:15:54;;;;;;;1.65;1.30;;;-0.30;99.90;;;;;;4148425;28;20050;-91
2021/01/09 00:17:56;;;;;;;0.90;0.90;;;-0.30;99.90;;;;;;4164749;28;20053;-92
2021/01/09 00:19:58;;;;;;;1.25;1.15;;;-0.30;99.90;;;;;;4166295;28;20100;-91
2021/01/09 00:21:59;;;;;;;0.80;0.80;;;-0.30;99.90;;;;;;4148630;28;20088;-91
2021/01/09 00:24:02;;;;;;;0.85;0.85;;;-0.30;99.90;;;;;;4162427;28;20080;-91
2021/01/09 00:26:04;;;;;;;1.60;1.50;;;-0.30;99.90;;;;;;4142704;28;20109;-91
2021/01/09 00:28:05;;;;;;;0.90;0.90;;;-0.30;99.90;;;;;;4159815;28;20049;-92
2021/01/09 00:30:07;;;;;;;1.17;1.08;;;-0.30;99.90;;;;;;4185798;28;20044;-92
2021/01/09 00:32:09;;;;;;;1.25;1.25;;;-0.40;99.90;;;;;;4166130;28;20081;-91
2021/01/09 00:34:10;;;;;;;1.50;1.42;;;-0.40;99.90;;;;;;4184650;28;20096;-92
2021/01/09 00:36:15;;;;;;;1.33;1.23;;;-0.30;99.80;;;;;;4167540;28;20029;-95
2021/01/09 00:38:16;;;;;;;0.90;0.90;;;-0.30;99.90;;;;;;4169419;28;20054;-90
2021/01/09 00:40:19;;;;;;;2.45;1.85;;;-0.30;99.80;;;;;;4171315;28;20069;-91
2021/01/09 00:42:20;;;;;;;1.58;0.98;;;-0.40;99.90;;;;;;4149281;28;20120;-91
2021/01/09 00:44:21;;;;;;;1.23;1.23;;;-0.30;99.90;;;;;;4148792;28;20046;-91
2021/01/09 00:46:23;;;;;;;19.42;2.00;;;-0.30;99.70;;;;;;4151590;28;20053;-90
2021/01/09 00:48:25;;;;;;;0.95;0.95;;;-0.40;99.80;;;;;;4132758;28;20127;-90
2021/01/09 00:50:26;;;;;;;7.60;2.40;;;-0.40;99.80;;;;;;4161423;28;20041;-91
2021/01/09 00:52:28;;;;;;;4.10;1.50;;;-0.40;99.90;;;;;;4165813;28;20073;-90
2021/01/09 00:54:31;;;;;;;1.65;1.55;;;-0.40;99.80;;;;;;4148971;28;20073;-92
2021/01/09 00:56:32;;;;;;;1.27;1.17;;;-0.40;99.90;;;;;;4151001;28;20050;-90
2021/01/09 00:58:34;;;;;;;7.82;2.08;;;-0.40;99.80;;;;;;4156870;28;20045;-91
2021/01/09 01:00:36;;;;;;;1.42;1.02;;;-0.40;99.60;;;;;;4170899;28;20085;-92
2021/01/09 01:02:37;;;;;;;2.05;1.52;;;-0.40;99.70;;;;;;4153708;28;20065;-91
2021/01/09 01:04:39;;;;;;;1.30;1.20;;;-0.40;99.80;;;;;;4148867;28;20050;-91
2021/01/09 01:06:41;;;;;;;1.33;1.33;;;-0.40;99.70;;;;;;4164604;28;20073;-93
2021/01/09 01:08:43;;;;;;;3.08;0.98;;;-0.40;99.80;;;;;;4178394;28;20056;-91
2021/01/09 01:10:58;;;;;;;2.33;2.15;;;-0.40;99.50;;;;;;4180125;28;20072;-91
2021/01/09 01:13:00;;;;;;;0.55;0.55;;;-0.40;99.50;;;;;;4151363;28;20081;-91
2021/01/09 01:15:02;;;;;;;1.58;1.50;;;-0.40;99.60;;;;;;4153858;28;20084;-91
2021/01/09 01:17:18;;;;;;;0.82;0.82;;;-0.40;99.60;;;;;;4158458;28;20133;-91
2021/01/09 01:19:34;;;;;;;;;;;-0.50;99.70;;;;;;4157380;28;20081;-91
2021/01/09 01:21:35;;;;;;;1.90;1.80;;;-0.40;99.70;;;;;;4167908;28;19928;-92
2021/01/09 01:23:38;;;;;;;0.98;0.98;;;-0.40;99.70;;;;;;4154839;28;20125;-91
2021/01/09 01:25:39;;;;;;;1.20;1.15;;;-0.40;99.70;;;;;;4151152;28;20082;-91
2021/01/09 01:27:40;;;;;;;0.90;0.90;;;-0.40;99.70;;;;;;4167758;28;20053;-91
2021/01/09 01:29:42;;;;;;;2.08;1.98;;;-0.40;99.70;;;;;;4151467;28;20418;-91
2021/01/09 01:31:44;;;;;;;4.38;2.05;;;-0.50;99.60;;;;;;4152231;28;20050;-92
2021/01/09 01:33:45;;;;;;;3.65;1.02;;;-0.40;99.70;;;;;;4150879;28;20411;-91
2021/01/09 01:35:48;;;;;;;5.07;1.65;;;-0.40;99.60;;;;;;4168013;28;20071;-92
2021/01/09 01:37:49;;;;;;;0.82;0.82;;;-0.40;99.60;;;;;;4168132;28;20080;-91
2021/01/09 01:39:50;;;;;;;4.35;2.13;;;-0.40;99.60;;;;;;4150848;28;20137;-91
2021/01/09 01:41:55;;;;;;;1.88;1.55;;;-0.50;99.60;;;;;;4142452;28;20134;-92
2021/01/09 01:43:56;;;;;;;2.05;1.90;;;-0.50;99.70;;;;;;4151657;28;20052;-91
2021/01/09 01:46:01;;;;;;;2.17;2.05;;;-0.50;99.70;;;;;;4151422;28;20566;-91
2021/01/09 01:48:04;;;;;;;1.15;1.08;;;-0.50;99.70;;;;;;4169632;28;20056;-91
2021/01/09 01:50:06;;;;;;;0.80;0.80;;;-0.50;99.70;;;;;;4150752;28;20050;-91
2021/01/09 01:52:08;;;;;;;0.82;0.82;;;-0.50;99.60;;;;;;4169537;28;20139;-91
2021/01/09 01:54:16;;;;;;;7.45;1.95;;;-0.50;99.70;;;;;;4168894;28;20053;-91
2021/01/09 01:56:18;;;;;;;1.10;1.10;;;-0.50;99.80;;;;;;4151737;28;20526;-91
2021/01/09 01:58:19;;;;;;;3.15;2.05;;;-0.50;99.60;;;;;;4151345;28;20053;-92
2021/01/09 02:00:24;;;;;;;1.20;1.17;;;-0.50;99.60;;;;;;4167597;28;20053;-91
2021/01/09 02:02:26;;;;;;;;;;;-0.50;99.60;;;;;;4152757;28;20057;-90
2021/01/09 02:04:27;;;;;;;0.65;0.65;;;-0.50;99.70;;;;;;4169040;28;19921;-91
2021/01/09 02:06:29;;;;;;;2.20;1.38;;;-0.50;99.70;;;;;;4152653;28;20054;-91
2021/01/09 02:08:49;;;;;;;1.08;0.98;;;-0.50;99.80;;;;;;4173692;28;20057;-91
2021/01/09 02:10:55;;;;;;;2.05;1.65;;;-0.50;99.80;;;;;;4182529;28;20057;-89
2021/01/09 02:13:10;;;;;;;1.25;1.23;;;-0.60;99.80;;;;;;4166324;28;20076;-90
2021/01/09 02:15:12;;;;;;;1.95;1.85;;;-0.60;99.90;;;;;;4166148;28;20053;-89
2021/01/09 02:17:13;;;;;;;1.88;1.77;;;-0.60;99.90;;;;;;4147835;28;20434;-91
2021/01/09 02:19:15;;;;;;;2.58;1.92;;;-0.60;99.80;;;;;;4150345;28;20125;-91
2021/01/09 02:21:38;;;;;;;2.75;2.10;;;-0.60;99.70;;;;;;4166855;28;20133;-91
2021/01/09 02:23:39;;;;;;;2.95;1.60;;;-0.60;99.70;;;;;;4179889;28;20143;-95
2021/01/09 02:25:41;;;;;;;1.00;0.90;;;-0.60;99.70;;;;;;4165971;28;20574;-91
2021/01/09 02:27:42;;;;;;;2.58;2.17;;;-0.60;99.80;;;;;;4161461;28;20085;-92
2021/01/09 02:30:08;;;;;;;2.42;2.25;;;-0.60;99.80;;;;;;4159090;28;20053;-90
2021/01/09 02:32:10;;;;;;;;;;;-0.60;99.90;;;;;;4181422;28;20057;-91
2021/01/09 02:34:11;;;;;;;1.15;1.15;;;-0.60;99.80;;;;;;4166223;28;19921;-91
2021/01/09 02:36:12;;;;;;;1.40;0.95;;;-0.60;99.80;;;;;;4150019;28;20605;-91
2021/01/09 02:38:15;;;;;;;2.40;2.20;;;-0.60;99.70;;;;;;4167143;28;20057;-91
2021/01/09 02:40:17;;;;;;;0.82;0.82;;;-0.60;99.80;;;;;;4150886;28;20072;-91
2021/01/09 02:42:19;;;;;;;0.70;0.70;;;-0.60;99.70;;;;;;4149720;28;20064;-91
2021/01/09 02:44:20;;;;;;;1.30;1.27;;;-0.60;99.80;;;;;;4158873;28;20049;-90
2021/01/09 02:46:22;;;;;;;1.80;1.70;;;-0.60;99.90;;;;;;4169599;28;20053;-91
2021/01/09 02:48:23;;;;;;;0.85;0.85;;;-0.60;99.90;;;;;;4149901;28;20449;-91
2021/01/09 02:50:24;;;;;;;3.88;2.08;;;-0.70;99.90;;;;;;4148124;28;20050;-91
2021/01/09 02:52:26;;;;;;;1.08;1.08;;;-0.70;99.90;;;;;;4167434;28;20053;-91
2021/01/09 02:54:27;;;;;;;1.15;1.15;;;-0.70;99.90;;;;;;4149858;28;20494;-91
2021/01/09 02:56:28;;;;;;;4.30;1.88;;;-0.70;99.90;;;;;;4164890;28;20045;-91
2021/01/09 02:58:30;;;;;;;0.45;0.43;;;-0.60;99.90;;;;;;4166213;28;20053;-91
2021/01/09 03:00:31;;;;;;;1.40;1.13;;;-0.70;99.90;;;;;;4149835;28;20053;-91
2021/01/09 03:02:32;;;;;;;2.05;1.52;;;-0.60;99.90;;;;;;4163478;28;20163;-91
2021/01/09 03:04:33;;;;;;;1.75;1.65;;;-0.60;99.90;;;;;;4164893;28;20113;-91
2021/01/09 03:06:35;;;;;;;1.85;1.75;;;-0.70;99.90;;;;;;4149921;28;20054;-91
2021/01/09 03:08:36;;;;;;;1.73;1.63;;;-0.60;99.90;;;;;;4168073;28;20045;-91
2021/01/09 03:10:38;;;;;;;2.00;1.90;;;-0.60;99.90;;;;;;4150405;28;20048;-91
2021/01/09 03:12:39;;;;;;;1.80;1.70;;;-0.60;99.70;;;;;;4149189;28;20562;-90
2021/01/09 03:14:40;;;;;;;1.70;1.60;;;-0.60;99.80;;;;;;4163770;28;20132;-91
2021/01/09 03:16:42;;;;;;;2.05;1.80;;;-0.70;99.70;;;;;;4175630;28;20075;-91
2021/01/09 03:18:43;;;;;;;0.77;0.77;;;-0.70;99.90;;;;;;4152157;28;20140;-89
2021/01/09 03:20:45;;;;;;;2.75;1.95;;;-0.70;99.80;;;;;;4166834;28;20136;-89
2021/01/09 03:22:46;;;;;;;2.20;1.95;;;-0.70;99.90;;;;;;4165132;28;20052;-89
2021/01/09 03:24:48;;;;;;;1.05;1.05;;;-0.70;99.90;;;;;;4151409;28;20141;-90
2021/01/09 03:26:49;;;;;;;3.30;3.10;;;-0.70;99.90;;;;;;4166217;28;20049;-91
2021/01/09 03:28:51;;;;;;;1.42;1.33;;;-0.60;99.80;;;;;;4168012;28;20053;-91
2021/01/09 03:30:53;;;;;;;1.67;1.58;;;-0.70;99.90;;;;;;4149072;28;20073;-92
2021/01/09 03:32:54;;;;;;;1.75;1.50;;;-0.70;99.80;;;;;;4165460;28;20053;-92
2021/01/09 03:34:57;;;;;;;1.17;1.17;;;-0.70;99.70;;;;;;4151061;28;20129;-91
2021/01/09 03:36:58;;;;;;;0.82;0.82;;;-0.70;99.90;;;;;;4164624;28;20526;-90
2021/01/09 03:39:00;;;;;;;2.15;2.05;;;-0.70;99.90;;;;;;4149623;28;20129;-91
2021/01/09 03:41:05;;;;;;;;;;;-0.70;99.90;;;;;;4166601;28;20524;-92
2021/01/09 03:43:07;;;;;;;0.93;0.93;;;-0.70;99.90;;;;;;4165406;28;20361;-90
2021/01/09 03:45:08;;;;;;;0.73;0.73;;;-0.70;99.90;;;;;;4164844;28;20124;-91
2021/01/09 03:47:10;;;;;;;2.28;2.08;;;-0.70;99.90;;;;;;4166276;28;20128;-91
2021/01/09 03:49:11;;;;;;;0.95;0.95;;;-0.70;99.90;;;;;;4148607;28;20065;-91
2021/01/09 03:51:13;;;;;;;1.67;1.45;;;-0.70;99.90;;;;;;4148488;28;20537;-91
2021/01/09 03:53:15;;;;;;;3.83;2.45;;;-0.70;99.90;;;;;;4148019;28;20057;-91
2021/01/09 03:55:16;;;;;;;1.17;1.08;;;-0.70;99.90;;;;;;4165991;28;20076;-91
2021/01/09 03:57:17;;;;;;;1.35;1.20;;;-0.70;99.90;;;;;;4181120;28;20057;-91
2021/01/09 03:59:19;;;;;;;1.13;1.10;;;-0.70;99.90;;;;;;4165245;28;20046;-91
2021/01/09 04:01:20;;;;;;;2.10;2.00;;;-0.70;99.90;;;;;;4150296;28;20501;-91
2021/01/09 04:03:23;;;;;;;1.08;1.08;;;-0.70;99.90;;;;;;4148813;28;20061;-91
2021/01/09 04:05:24;;;;;;;1.08;1.08;;;-0.70;99.90;;;;;;4160718;28;20059;-91
2021/01/09 04:07:25;;;;;;;0.60;0.60;;;-0.70;99.90;;;;;;4149657;28;20054;-91
2021/01/09 04:09:26;;;;;;;1.48;1.38;;;-0.80;99.90;;;;;;4148344;28;20441;-91
2021/01/09 04:11:28;;;;;;;1.75;1.65;;;-0.80;99.90;;;;;;4149800;28;20073;-91
2021/01/09 04:13:29;;;;;;;2.42;1.75;;;-0.80;99.90;;;;;;4149983;28;20053;-91
2021/01/09 04:15:30;;;;;;;2.20;1.15;;;-0.80;99.90;;;;;;4149031;28;20441;-90
2021/01/09 04:17:32;;;;;;;1.17;1.17;;;-0.80;99.90;;;;;;4148367;28;20555;-90
2021/01/09 04:19:34;;;;;;;4.38;2.25;;;-0.80;99.90;;;;;;4167486;28;20110;-91
2021/01/09 04:21:51;;;;;;;1.40;1.30;;;-0.80;99.90;;;;;;4148421;28;20056;-90
2021/01/09 04:23:53;;;;;;;1.00;0.95;;;-0.80;99.90;;;;;;4149720;28;20057;-91
2021/01/09 04:25:54;;;;;;;2.00;1.90;;;-0.80;99.90;;;;;;4147302;28;20075;-92
2021/01/09 04:27:55;;;;;;;2.25;2.05;;;-0.80;99.90;;;;;;4149655;28;20076;-90
2021/01/09 04:29:56;;;;;;;5.22;1.40;;;-0.70;99.90;;;;;;4154234;28;20050;-90
2021/01/09 04:31:58;;;;;;;2.35;2.20;;;-0.70;99.90;;;;;;4158578;28;20053;-91
2021/01/09 04:34:00;;;;;;;2.40;1.80;;;-0.80;99.90;;;;;;4167319;28;20057;-90
2021/01/09 04:36:01;;;;;;;2.75;2.50;;;-0.80;99.90;;;;;;4148810;28;20046;-90
2021/01/09 04:38:03;;;;;;;3.63;1.75;;;-0.70;99.90;;;;;;4149036;28;20058;-91
2021/01/09 04:40:07;;;;;;;1.08;1.02;;;-0.70;99.90;;;;;;4147982;28;20426;-90
2021/01/09 04:42:08;;;;;;;1.48;0.90;;;-0.70;99.90;;;;;;4178928;28;20147;-92
2021/01/09 04:44:10;;;;;;;0.57;0.57;;;-0.70;99.90;;;;;;4155895;28;20053;-91
2021/01/09 04:46:11;;;;;;;0.80;0.80;;;-0.70;99.90;;;;;;4162213;28;20060;-90
2021/01/09 04:48:13;;;;;;;1.25;1.00;;;-0.70;99.90;;;;;;4165253;28;20079;-91
2021/01/09 04:50:15;;;;;;;1.33;1.23;;;-0.70;99.90;;;;;;4150175;28;20064;-91
2021/01/09 04:52:16;;;;;;;2.13;1.92;;;-0.70;99.90;;;;;;4165691;28;20073;-91
2021/01/09 04:54:24;;;;;;;2.67;2.47;;;-0.70;99.90;;;;;;4185377;28;20053;-91
2021/01/09 04:56:26;;;;;;;10.68;2.13;;;-0.70;99.90;;;;;;4155793;28;20129;-90
2021/01/09 04:58:27;;;;;;;2.63;2.45;;;-0.70;99.90;;;;;;4166849;28;20052;-91
2021/01/09 05:00:29;;;;;;;1.65;1.60;;;-0.70;99.90;;;;;;4164545;28;20145;-91
2021/01/09 05:02:35;;;;;;;1.77;1.40;;;-0.70;99.90;;;;;;4149927;28;20579;-90
2021/01/09 05:04:40;;;;;;;2.65;2.47;;;-0.70;99.90;;;;;;4151117;28;20103;-91
2021/01/09 05:06:42;;;;;;;0.85;0.70;;;-0.70;99.90;;;;;;4148585;28;20133;-90
2021/01/09 05:08:43;;;;;;;2.40;2.20;;;-0.80;99.90;;;;;;4170443;28;20065;-92
2021/01/09 05:10:45;;;;;;;0.77;0.77;;;-0.80;99.90;;;;;;4165979;28;20132;-90
2021/01/09 05:12:46;;;;;;;2.08;1.88;;;-0.80;99.90;;;;;;4147928;28;20057;-90
2021/01/09 05:14:48;;;;;;;2.22;1.70;;;-0.80;99.90;;;;;;4170298;28;20045;-91
2021/01/09 05:16:50;;;;;;;2.15;2.05;;;-0.80;99.90;;;;;;4149115;28;20072;-91
2021/01/09 05:18:51;;;;;;;1.48;1.38;;;-0.90;99.90;;;;;;4147661;28;20445;-90
2021/01/09 05:20:52;;;;;;;1.95;1.85;;;-0.80;99.90;;;;;;4164437;28;20132;-90
2021/01/09 05:22:54;;;;;;;1.70;1.60;;;-0.80;99.90;;;;;;4165242;28;20077;-90
2021/01/09 05:24:56;;;;;;;1.15;1.15;;;-0.80;99.90;;;;;;4164490;28;20053;-90
2021/01/09 05:26:57;;;;;;;1.98;1.88;;;-0.80;99.90;;;;;;4161797;28;20068;-90
2021/01/09 05:29:00;;;;;;;1.42;1.33;;;-0.80;99.90;;;;;;4161509;28;20141;-90
2021/01/09 05:31:02;;;;;;;1.35;1.15;;;-0.80;99.90;;;;;;4164470;28;20053;-90
2021/01/09 05:33:03;;;;;;;0.40;0.40;;;-0.80;99.90;;;;;;4180416;28;20057;-90
2021/01/09 05:35:05;;;;;;;1.85;1.75;;;-0.80;99.90;;;;;;4170947;28;20128;-91
2021/01/09 05:37:23;;;;;;;2.22;1.65;;;-0.90;99.90;;;;;;4148376;28;20060;-91
2021/01/09 05:39:25;;;;;;;1.75;1.65;;;-0.80;99.90;;;;;;4144964;28;20046;-91
2021/01/09 05:41:26;;;;;;;1.77;1.63;;;-0.80;99.90;;;;;;4148186;28;20129;-90
2021/01/09 05:43:27;;;;;;;2.05;1.65;;;-0.90;99.90;;;;;;4166998;28;20053;-92
2021/01/09 05:45:29;;;;;;;1.73;1.63;;;-0.90;99.90;;;;;;4150640;28;20445;-90
2021/01/09 05:47:30;;;;;;;3.97;1.63;;;-0.90;99.90;;;;;;4151828;28;20049;-91
2021/01/09 05:49:32;;;;;;;2.30;2.10;;;-0.90;99.90;;;;;;4150089;28;20461;-91
2021/01/09 05:51:38;;;;;;;5.72;4.30;;;-0.90;99.90;;;;;;4147286;28;20058;-90
2021/01/09 05:53:43;;;;;;;1.55;1.38;;;-0.90;99.90;;;;;;4163539;28;20148;-91
2021/01/09 05:55:46;;;;;;;3.50;1.77;;;-0.90;99.90;;;;;;4167503;28;20121;-91
2021/01/09 05:57:47;;;;;;;2.70;2.50;;;-0.90;99.90;;;;;;4166706;28;20060;-90
2021/01/09 05:59:50;;;;;;;1.65;1.55;;;-0.90;99.90;;;;;;4169737;28;20069;-91
2021/01/09 06:01:51;;;;;;;1.35;1.25;;;-0.80;99.90;;;;;;4150903;28;20042;-90
2021/01/09 06:04:07;;;;;;;2.10;2.00;;;-0.80;99.90;;;;;;4134699;28;20080;-90
2021/01/09 06:06:20;;;;;;;;;;;-0.80;99.90;;;;;;4166595;28;20053;-90
2021/01/09 06:08:26;;;;;;;1.55;1.45;;;-0.80;99.90;;;;;;4195670;28;19924;-90
2021/01/09 06:10:27;;;;;;;1.33;0.80;;;-0.80;99.90;;;;;;4184048;28;20053;-90
2021/01/09 06:12:28;;;;;;;1.60;1.50;;;-0.90;99.90;;;;;;4150399;28;20058;-90
2021/01/09 06:14:30;;;;;;;2.45;1.88;;;-0.90;99.90;;;;;;4169748;28;20053;-90
2021/01/09 06:16:32;;;;;;;1.83;1.73;;;-0.90;99.90;;;;;;4171264;28;20131;-90
2021/01/09 06:18:34;;;;;;;2.08;1.98;;;-0.90;99.90;;;;;;4166722;28;20484;-90
2021/01/09 06:20:35;;;;;;;1.65;1.55;;;-0.90;99.90;;;;;;4154616;28;20085;-91
2021/01/09 06:22:37;;;;;;;1.48;1.38;;;-0.80;99.90;;;;;;4150313;28;20069;-90
2021/01/09 06:24:40;;;;;;;1.27;1.27;;;-0.90;99.90;;;;;;4166548;28;20064;-90
2021/01/09 06:26:41;;;;;;;3.17;1.38;;;-0.90;99.90;;;;;;4151090;28;20077;-90
2021/01/09 06:28:47;;;;;;;4.07;2.60;;;-0.90;99.90;;;;;;4169269;28;20063;-91
2021/01/09 06:30:51;;;;;;;1.70;1.35;;;-0.80;99.90;;;;;;4167056;28;20406;-90
2021/01/09 06:32:56;;;;;;;3.05;1.02;;;-0.80;99.90;;;;;;4166709;28;20057;-90
2021/01/09 06:34:58;;;;;;;2.65;2.45;;;-0.90;99.90;;;;;;4158566;28;20046;-89
2021/01/09 06:37:00;;;;;;;3.80;2.42;;;-0.90;99.90;;;;;;4151957;28;20049;-89
2021/01/09 06:39:03;;;;;;;1.25;1.15;;;-0.90;99.90;;;;;;4150064;28;20042;-90
2021/01/09 06:41:04;;;;;;;1.40;1.27;;;-0.90;99.90;;;;;;4167050;28;20053;-91
2021/01/09 06:43:06;;;;;;;3.42;1.70;;;-0.90;99.90;;;;;;4167671;28;20053;-90
2021/01/09 06:45:11;;;;;;;0.77;0.75;;;-0.90;99.90;;;;;;4173257;28;20132;-90
2021/01/09 06:47:23;;;;;;;0.93;0.93;;;-0.90;99.90;;;;;;4169085;28;20477;-89
2021/01/09 06:49:25;;;;;;;1.33;1.23;;;-1.00;99.90;;;;;;4152262;28;20073;-89
2021/01/09 06:51:35;;;;;;;3.22;2.20;;;-1.00;99.90;;;;;;4151271;28;20054;-88
2021/01/09 06:53:38;;;;;;;2.08;1.98;;;-1.00;99.90;;;;;;4197156;28;20139;-90
2021/01/09 06:55:39;;;;;;;2.15;2.05;;;-1.00;99.90;;;;;;4172357;28;20048;-90
2021/01/09 06:57:42;;;;;;;1.50;1.27;;;-1.00;99.90;;;;;;4200524;28;20052;-90
2021/01/09 06:59:48;;;;;;;1.40;1.30;;;-1.00;99.90;;;;;;4166761;28;20049;-90
2021/01/09 07:01:49;;;;;;;1.52;1.25;;;-1.00;99.90;;;;;;4174278;28;20081;-90
2021/01/09 07:03:51;;;;;;;1.85;1.70;;;-1.00;99.90;;;;;;4165989;28;20061;-83
2021/01/09 07:05:53;;;;;;;1.85;1.75;;;-1.00;99.90;;;;;;4182580;28;20056;-84
2021/01/09 07:07:56;;;;;;;1.50;1.40;;;-1.00;99.90;;;;;;4182241;28;20127;-83
2021/01/09 07:10:07;;;;;;;1.70;1.60;;;-1.00;99.90;;;;;;4149889;28;20133;-85
2021/01/09 07:12:08;;;;;;;3.38;2.03;;;-1.00;99.90;;;;;;4181951;28;20078;-84
2021/01/09 07:14:18;;;;;;;2.33;2.15;;;-1.00;99.90;;;;;;4166497;28;20400;-85
2021/01/09 07:16:19;;;;;;;2.65;2.45;;;-1.00;99.90;;;;;;4181991;28;20048;-84
2021/01/09 07:18:21;;;;;;;2.10;1.23;;;-1.00;99.90;;;;;;4160456;28;20050;-84
2021/01/09 07:20:23;;;;;;;2.17;2.08;;;-1.00;99.90;;;;;;4165130;28;20482;-84
2021/01/09 07:22:24;;;;;;;2.45;2.35;;;-1.00;99.90;;;;;;4165233;28;20067;-84
2021/01/09 07:24:26;;;;;;;1.40;1.30;;;-1.00;99.90;;;;;;4180741;28;20128;-84
2021/01/09 07:26:27;;;;;;;1.38;1.35;;;-1.00;99.90;;;;;;4165611;28;20520;-85
2021/01/09 07:28:32;;;;;;;1.45;1.20;;;-1.00;99.90;;;;;;4165152;28;20044;-84
2021/01/09 07:30:34;;;;;;;4.18;3.17;;;-1.00;99.90;;;;;;4181145;28;20049;-84
2021/01/09 07:32:56;;;;;;;3.45;2.78;;;-0.90;99.90;;;;;;4181896;28;20053;-83
2021/01/09 07:34:57;;;;;;;2.70;2.20;;;-0.90;99.90;;;;;;4181791;28;20049;-84
2021/01/09 07:36:59;;;;;;;1.05;1.05;;;-0.90;99.90;;;;;;4164554;28;20049;-84
2021/01/09 07:39:02;;;;;;;2.97;2.05;;;-1.00;99.90;;;;;;4164573;28;20343;-84
2021/01/09 07:41:05;;;;;;;3.22;2.90;;;-1.00;99.90;;;;;;4181374;28;20055;-82
2021/01/09 07:43:06;;;;;;;1.00;1.00;;;-1.00;99.90;;;;;;4149229;28;20445;-84
2021/01/09 07:45:09;;;;;;;14.95;2.35;;;-1.00;99.90;;;;;;4182081;28;20165;-83
2021/01/09 07:47:11;;;;;;;2.30;2.15;;;-1.00;99.90;;;;;;4165100;28;20085;-86
2021/01/09 07:49:13;;;;;;;0.80;0.80;;;-1.00;99.90;;;;;;4165151;28;20493;-84
2021/01/09 07:51:14;;;;;;;4.88;3.60;;;-1.00;99.90;;;;;;4163966;28;20053;-83
2021/01/09 07:53:24;;;;;;;1.13;1.10;;;-0.90;99.90;;;;;;4181516;28;20045;-83
2021/01/09 07:55:26;;;;;;;2.33;2.22;;;-0.90;99.90;;;;;;4149972;28;20118;-84
2021/01/09 07:57:27;;;;;;;5.00;2.17;;;-0.90;99.90;;;;;;4163615;28;20059;-84
2021/01/09 07:59:28;;;;;;;3.72;3.47;;;-0.90;99.90;;;;;;4182061;28;20037;-84
2021/01/09 08:01:29;;;;;;;0.45;0.45;;;-1.00;99.90;;;;;;4182971;28;20045;-83
2021/01/09 08:03:32;;;;;;;2.05;1.95;;;-1.00;99.90;;;;;;4147800;28;20049;-84
2021/01/09 08:05:34;;;;;;;3.65;2.70;;;-1.00;99.90;;;;;;4165169;28;20049;-84
2021/01/09 08:07:36;;;;;;;2.35;1.67;;;-1.00;99.90;;;;;;4182006;28;20441;-83
2021/01/09 08:09:37;;;;;;;0.43;0.43;;;-1.00;99.90;;;;;;4180042;28;20106;-83
2021/01/09 08:11:45;;;;;;;3.28;2.58;;;-1.00;99.90;;;;;;4165800;28;20043;-83
2021/01/09 08:13:47;;;;;;;0.65;0.65;;;-1.10;99.90;;;;;;4181478;28;20053;-83
2021/01/09 08:15:48;;;;;;;2.15;1.70;;;-1.10;99.90;;;;;;4179927;28;20410;-83
2021/01/09 08:17:49;;;;;;;1.95;1.85;;;-1.10;99.90;;;;;;4181582;28;20049;-83
2021/01/09 08:19:51;;;;;;;3.97;3.13;;;-1.10;99.90;;;;;;4162173;28;20038;-84
2021/01/09 08:21:52;;;;;;;1.92;1.83;;;-1.10;99.90;;;;;;4170579;28;20045;-84
2021/01/09 08:23:54;;;;;;;1.02;1.00;;;-1.10;99.90;;;;;;4180862;28;20135;-85
2021/01/09 08:25:55;;;;;;;3.45;2.78;;;-1.10;99.90;;;;;;4180909;28;20132;-86
2021/01/09 08:27:57;;;;;;;1.38;1.38;;;-1.10;99.90;;;;;;4164210;28;20053;-83
2021/01/09 08:29:59;;;;;;;2.53;2.17;;;-1.10;99.90;;;;;;4156038;28;20050;-82
2021/01/09 08:32:00;;;;;;;2.03;1.92;;;-1.10;99.90;;;;;;4135338;28;20129;-83
2021/01/09 08:34:02;;;;;;;0.50;0.50;;;-1.10;99.90;;;;;;4181612;28;20107;-84
2021/01/09 08:36:04;;;;;;;1.52;1.42;;;-1.10;99.90;;;;;;4180854;28;20123;-84
2021/01/09 08:38:05;;;;;;;1.92;1.83;;;-1.10;99.90;;;;;;4164266;28;20513;-83
2021/01/09 08:40:16;;;;;;;2.38;2.28;;;-1.10;99.90;;;;;;4164360;28;20045;-84
2021/01/09 08:42:17;;;;;;;2.35;2.25;;;-1.00;99.90;;;;;;4163542;28;20055;-83
2021/01/09 08:44:19;;;;;;;2.08;1.98;;;-0.90;99.90;;;;;;4165256;28;20042;-83
2021/01/09 08:46:20;;;;;;;1.90;1.77;;;-0.90;99.90;;;;;;4180332;28;20088;-83
2021/01/09 08:48:23;;;;;;;1.33;1.23;;;-0.90;99.90;;;;;;4176794;28;20543;-84
2021/01/09 08:50:25;;;;;;;1.13;1.13;;;-0.90;99.80;;;;;;4181164;28;20055;-83
2021/01/09 08:52:27;;;;;;;1.55;1.27;;;-0.90;99.90;;;;;;4164099;28;20115;-82
2021/01/09 08:54:29;;;;;;;2.35;2.15;;;-0.90;99.70;;;;;;4179861;28;20059;-83
2021/01/09 08:56:31;;;;;;;2.05;1.85;;;-0.90;99.70;;;;;;4181355;28;20041;-83
2021/01/09 08:58:33;;;;;;;1.52;1.42;;;-0.90;99.60;;;;;;4181805;28;20072;-83
2021/01/09 09:00:35;;;;;;;2.15;1.70;;;-0.90;99.90;;;;;;4163463;28;20129;-83
2021/01/09 09:02:36;;;;;;;1.92;1.80;;;-0.90;99.90;;;;;;4180396;28;20052;-84
2021/01/09 09:04:44;;;;;;;4.40;2.42;;;-0.90;99.90;;;;;;4163776;28;20068;-88
2021/01/09 09:06:45;;;;;;;2.08;1.33;;;-0.80;99.90;;;;;;4179462;28;20056;-83
2021/01/09 09:08:46;;;;;;;2.38;2.17;;;-0.80;99.90;;;;;;4180681;28;20091;-84
2021/01/09 09:10:47;;;;;;;1.48;1.45;;;-0.70;99.70;;;;;;4164418;28;20048;-88
2021/01/09 09:12:49;;;;;;;2.70;2.45;;;-0.70;99.60;;;;;;4179860;28;20076;-84
2021/01/09 09:14:55;;;;;;;1.33;1.33;;;-0.80;99.70;;;;;;4184576;28;20080;-86
2021/01/09 09:17:00;;;;;;;1.27;1.20;;;-0.80;99.90;;;;;;4179411;28;20141;-85
2021/01/09 09:19:12;;;;;;;3.35;3.15;;;-0.70;99.90;;;;;;4164714;28;20100;-88
2021/01/09 09:21:13;;;;;;;2.95;2.70;;;-0.70;99.90;;;;;;4179508;28;20061;-84
2021/01/09 09:23:19;;;;;;;2.33;1.73;;;-0.70;99.60;;;;;;4183274;28;20045;-86
2021/01/09 09:25:23;;;;;;;1.92;1.80;;;-0.70;99.60;;;;;;4200794;28;20052;-87
2021/01/09 09:27:29;;;;;;;2.70;2.50;;;-0.70;99.30;;;;;;4180104;28;20045;-79
2021/01/09 09:29:31;;;;;;;1.65;1.55;;;-0.60;99.20;;;;;;4184814;28;20072;-81
2021/01/09 09:31:43;;;;;;;1.00;1.00;;;-0.60;99.10;;;;;;4203637;28;20072;-81
2021/01/09 09:33:57;;;;;;;1.10;0.93;;;-0.60;99.20;;;;;;4184797;28;20038;-82
2021/01/09 09:36:07;;;;;;;1.15;1.15;;;-0.60;99.20;;;;;;4169045;28;20041;-82
2021/01/09 09:38:11;;;;;;;2.20;2.08;;;-0.70;99.40;;;;;;4183044;28;20057;-83
2021/01/09 09:40:22;;;;;;;1.45;1.35;;;-0.60;99.20;;;;;;4150704;28;20132;-83
2021/01/09 09:42:26;;;;;;;2.10;2.00;;;-0.70;99.10;;;;;;4178677;28;20535;-83
2021/01/09 09:44:41;;;;;;;2.53;1.67;;;-0.60;99.00;;;;;;4183857;28;20045;-84
2021/01/09 09:46:42;;;;;;;5.90;2.38;;;-0.70;98.80;;;;;;4183394;28;20045;-83
2021/01/09 09:48:44;;;;;;;2.10;1.92;;;-0.70;98.90;;;;;;4165854;28;20087;-83
2021/01/09 09:50:45;;;;;;;1.02;1.02;;;-0.70;99.00;;;;;;4152433;28;20052;-83
2021/01/09 09:53:05;;;;;;;3.38;2.97;;;-0.60;99.00;;;;;;4184748;28;20531;-83
2021/01/09 09:55:08;;;;;;;1.77;1.60;;;-0.70;98.60;;;;;;4170629;28;20409;-83
2021/01/09 09:57:22;;;;;;;2.63;2.47;;;-0.60;98.80;;;;;;4155025;28;20110;-85
2021/01/09 09:59:28;;;;;;;3.38;1.70;;;-0.70;98.70;;;;;;4188202;28;20099;-82
2021/01/09 10:01:29;;;;;;;1.88;1.77;;;-0.60;98.80;;;;;;4182903;28;20511;-81
2021/01/09 10:03:35;;;;;;;4.65;1.75;;;-0.70;98.60;;;;;;4183001;28;20135;-82
2021/01/09 10:05:36;;;;;;;;;;;-0.60;98.70;;;;;;4186184;28;20552;-81
2021/01/09 10:07:37;;;;;;;2.15;2.05;;;-0.60;98.60;;;;;;4182931;28;20405;-82
2021/01/09 10:09:39;;;;;;;0.80;0.80;;;-0.50;98.60;;;;;;4183185;28;20137;-82
2021/01/09 10:11:41;;;;;;;1.92;1.83;;;-0.50;98.50;;;;;;4149953;28;20552;-82
2021/01/09 10:14:01;;;;;;;2.60;2.47;;;-0.60;98.20;;;;;;4183109;28;20041;-82
2021/01/09 10:16:03;;;;;;;0.40;0.40;;;-0.60;98.20;;;;;;4166793;28;20056;-81
2021/01/09 10:18:04;;;;;;;4.47;2.58;;;-0.60;98.40;;;;;;4164892;28;20064;-82
2021/01/09 10:20:06;;;;;;;2.15;1.20;;;-0.60;98.40;;;;;;4182469;28;20646;-82
2021/01/09 10:22:07;;;;;;;1.80;1.70;;;-0.50;98.40;;;;;;4183148;28;20045;-82
2021/01/09 10:24:09;;;;;;;3.17;2.85;;;-0.50;98.30;;;;;;4181980;28;20086;-82
2021/01/09 10:26:10;;;;;;;0.75;0.75;;;-0.50;98.20;;;;;;4166178;28;20050;-84
2021/01/09 10:28:11;;;;;;;1.73;1.63;;;-0.40;98.40;;;;;;4152461;28;20057;-83
2021/01/09 10:30:13;;;;;;;3.00;2.47;;;-0.40;98.40;;;;;;4182584;28;20538;-82
2021/01/09 10:32:14;;;;;;;1.85;1.10;;;-0.40;98.10;;;;;;4165893;28;20045;-82
2021/01/09 10:34:15;;;;;;;1.17;1.17;;;-0.30;98.30;;;;;;4166038;28;20076;-82
2021/01/09 10:36:22;;;;;;;1.17;1.17;;;-0.30;98.30;;;;;;4182346;28;20136;-82
2021/01/09 10:38:23;;;;;;;1.80;1.70;;;-0.30;97.90;;;;;;4165602;28;20057;-82
2021/01/09 10:40:25;;;;;;;1.17;1.17;;;-0.20;98.10;;;;;;4182451;28;20083;-82
2021/01/09 10:42:29;;;;;;;0.95;0.95;;;-0.20;97.90;;;;;;4147755;28;20050;-82